sensor_id;sensor_type;location;lat;lon;timestamp;P1;durP1;ratioP1;P2;durP2;ratioP2
31206;SDS011;17834;52.992;8.856;2022-12-18T00:00:45;44.25;;;15.23;;
31206;SDS011;17834;52.992;8.856;2022-12-18T00:03:14;43.55;;;16.25;;
31206;SDS011;17834;52.992;8.856;2022-12-18T00:05:47;35.45;;;16.40;;
31206;SDS011;17834;52.992;8.856;2022-12-18T00:08:14;36.30;;;15.30;;
31206;SDS011;17834;52.992;8.856;2022-12-18T00:10:40;38.38;;;15.90;;
31206;SDS011;17834;52.992;8.856;2022-12-18T00:13:06;29.70;;;15.38;;
31206;SDS011;17834;52.992;8.856;2022-12-18T00:15:35;44.40;;;16.20;;
31206;SDS011;17834;52.992;8.856;2022-12-18T00:18:01;35.58;;;16.08;;
31206;SDS011;17834;52.992;8.856;2022-12-18T00:20:27;39.45;;;18.13;;
31206;SDS011;17834;52.992;8.856;2022-12-18T00:22:53;45.30;;;15.93;;
31206;SDS011;17834;52.992;8.856;2022-12-18T00:25:20;33.72;;;16.83;;
31206;SDS011;17834;52.992;8.856;2022-12-18T00:27:46;27.83;;;14.25;;
31206;SDS011;17834;52.992;8.856;2022-12-18T00:30:12;29.83;;;14.52;;
31206;SDS011;17834;52.992;8.856;2022-12-18T00:32:38;30.95;;;14.75;;
31206;SDS011;17834;52.992;8.856;2022-12-18T00:35:05;32.13;;;14.35;;
31206;SDS011;17834;52.992;8.856;2022-12-18T00:37:32;36.03;;;15.10;;
31206;SDS011;17834;52.992;8.856;2022-12-18T00:39:58;31.38;;;14.70;;
31206;SDS011;17834;52.992;8.856;2022-12-18T00:42:25;35.20;;;15.30;;
31206;SDS011;17834;52.992;8.856;2022-12-18T00:45:09;35.25;;;14.52;;
31206;SDS011;17834;52.992;8.856;2022-12-18T00:47:35;33.25;;;15.57;;
31206;SDS011;17834;52.992;8.856;2022-12-18T00:50:01;42.25;;;15.65;;
31206;SDS011;17834;52.992;8.856;2022-12-18T00:52:27;31.15;;;14.85;;
31206;SDS011;17834;52.992;8.856;2022-12-18T00:54:53;25.63;;;14.00;;
31206;SDS011;17834;52.992;8.856;2022-12-18T00:57:19;32.25;;;14.43;;
31206;SDS011;17834;52.992;8.856;2022-12-18T00:59:45;31.88;;;14.57;;
31206;SDS011;17834;52.992;8.856;2022-12-18T01:02:11;33.00;;;14.95;;
31206;SDS011;17834;52.992;8.856;2022-12-18T01:04:37;29.50;;;14.18;;
31206;SDS011;17834;52.992;8.856;2022-12-18T01:07:03;27.83;;;13.48;;
31206;SDS011;17834;52.992;8.856;2022-12-18T01:09:29;28.02;;;14.23;;
31206;SDS011;17834;52.992;8.856;2022-12-18T01:11:56;29.00;;;15.23;;
31206;SDS011;17834;52.992;8.856;2022-12-18T01:14:22;34.78;;;14.50;;
31206;SDS011;17834;52.992;8.856;2022-12-18T01:16:48;24.27;;;12.10;;
31206;SDS011;17834;52.992;8.856;2022-12-18T01:19:14;27.98;;;13.43;;
31206;SDS011;17834;52.992;8.856;2022-12-18T01:21:40;25.80;;;11.90;;
31206;SDS011;17834;52.992;8.856;2022-12-18T01:24:06;31.60;;;15.13;;
31206;SDS011;17834;52.992;8.856;2022-12-18T01:26:32;33.80;;;15.25;;
31206;SDS011;17834;52.992;8.856;2022-12-18T01:28:58;29.63;;;13.13;;
31206;SDS011;17834;52.992;8.856;2022-12-18T01:31:25;23.63;;;11.77;;
31206;SDS011;17834;52.992;8.856;2022-12-18T01:33:52;26.40;;;11.27;;
31206;SDS011;17834;52.992;8.856;2022-12-18T01:36:19;22.30;;;11.85;;
31206;SDS011;17834;52.992;8.856;2022-12-18T01:38:46;27.00;;;12.27;;
31206;SDS011;17834;52.992;8.856;2022-12-18T01:41:12;27.25;;;13.10;;
31206;SDS011;17834;52.992;8.856;2022-12-18T01:43:42;24.63;;;10.15;;
31206;SDS011;17834;52.992;8.856;2022-12-18T01:46:08;29.00;;;13.05;;
31206;SDS011;17834;52.992;8.856;2022-12-18T01:48:34;20.70;;;11.50;;
31206;SDS011;17834;52.992;8.856;2022-12-18T01:51:00;28.35;;;13.85;;
31206;SDS011;17834;52.992;8.856;2022-12-18T01:53:26;26.17;;;12.73;;
31206;SDS011;17834;52.992;8.856;2022-12-18T01:55:54;22.15;;;13.20;;
31206;SDS011;17834;52.992;8.856;2022-12-18T01:58:22;26.90;;;12.68;;
31206;SDS011;17834;52.992;8.856;2022-12-18T02:00:50;23.83;;;13.40;;
31206;SDS011;17834;52.992;8.856;2022-12-18T02:03:16;22.10;;;10.68;;
31206;SDS011;17834;52.992;8.856;2022-12-18T02:15:54;23.02;;;11.95;;
31206;SDS011;17834;52.992;8.856;2022-12-18T02:18:26;30.35;;;11.55;;
31206;SDS011;17834;52.992;8.856;2022-12-18T02:23:47;24.17;;;11.52;;
31206;SDS011;17834;52.992;8.856;2022-12-18T02:26:27;21.05;;;9.38;;
31206;SDS011;17834;52.992;8.856;2022-12-18T02:29:00;20.38;;;10.93;;
31206;SDS011;17834;52.992;8.856;2022-12-18T02:31:30;25.25;;;11.52;;
31206;SDS011;17834;52.992;8.856;2022-12-18T02:33:58;24.63;;;10.07;;
31206;SDS011;17834;52.992;8.856;2022-12-18T02:36:26;21.52;;;9.73;;
31206;SDS011;17834;52.992;8.856;2022-12-18T02:38:53;24.08;;;9.75;;
31206;SDS011;17834;52.992;8.856;2022-12-18T02:41:20;19.38;;;8.98;;
31206;SDS011;17834;52.992;8.856;2022-12-18T02:43:48;19.77;;;9.30;;
31206;SDS011;17834;52.992;8.856;2022-12-18T02:46:35;23.88;;;11.02;;
31206;SDS011;17834;52.992;8.856;2022-12-18T02:49:06;19.85;;;9.82;;
31206;SDS011;17834;52.992;8.856;2022-12-18T02:51:45;19.20;;;10.32;;
31206;SDS011;17834;52.992;8.856;2022-12-18T02:54:35;18.45;;;8.48;;
31206;SDS011;17834;52.992;8.856;2022-12-18T02:57:05;20.38;;;10.30;;
31206;SDS011;17834;52.992;8.856;2022-12-18T02:59:38;33.25;;;10.75;;
31206;SDS011;17834;52.992;8.856;2022-12-18T03:02:09;19.00;;;9.95;;
31206;SDS011;17834;52.992;8.856;2022-12-18T03:04:47;18.75;;;9.18;;
31206;SDS011;17834;52.992;8.856;2022-12-18T03:07:15;23.67;;;11.65;;
31206;SDS011;17834;52.992;8.856;2022-12-18T03:09:43;26.95;;;10.23;;
31206;SDS011;17834;52.992;8.856;2022-12-18T03:15:01;18.50;;;8.93;;
31206;SDS011;17834;52.992;8.856;2022-12-18T03:17:29;20.13;;;10.27;;
31206;SDS011;17834;52.992;8.856;2022-12-18T03:19:56;21.27;;;11.40;;
31206;SDS011;17834;52.992;8.856;2022-12-18T03:22:24;24.85;;;11.05;;
31206;SDS011;17834;52.992;8.856;2022-12-18T03:24:53;17.50;;;9.88;;
31206;SDS011;17834;52.992;8.856;2022-12-18T03:27:19;27.02;;;11.25;;
31206;SDS011;17834;52.992;8.856;2022-12-18T03:29:56;21.25;;;10.77;;
31206;SDS011;17834;52.992;8.856;2022-12-18T03:32:32;27.80;;;11.68;;
31206;SDS011;17834;52.992;8.856;2022-12-18T03:34:59;26.45;;;11.15;;
31206;SDS011;17834;52.992;8.856;2022-12-18T03:37:27;20.75;;;9.43;;
31206;SDS011;17834;52.992;8.856;2022-12-18T03:39:56;18.33;;;9.43;;
31206;SDS011;17834;52.992;8.856;2022-12-18T03:45:02;22.00;;;10.43;;
31206;SDS011;17834;52.992;8.856;2022-12-18T03:47:32;33.13;;;11.68;;
31206;SDS011;17834;52.992;8.856;2022-12-18T03:52:36;23.85;;;10.43;;
31206;SDS011;17834;52.992;8.856;2022-12-18T03:55:03;21.05;;;9.88;;
31206;SDS011;17834;52.992;8.856;2022-12-18T03:57:31;28.13;;;11.05;;
31206;SDS011;17834;52.992;8.856;2022-12-18T04:00:00;25.35;;;9.60;;
31206;SDS011;17834;52.992;8.856;2022-12-18T04:02:26;28.13;;;9.60;;
31206;SDS011;17834;52.992;8.856;2022-12-18T04:04:55;24.25;;;10.65;;
31206;SDS011;17834;52.992;8.856;2022-12-18T04:07:23;14.95;;;8.80;;
31206;SDS011;17834;52.992;8.856;2022-12-18T04:09:50;22.25;;;9.48;;
31206;SDS011;17834;52.992;8.856;2022-12-18T04:12:18;19.75;;;8.77;;
31206;SDS011;17834;52.992;8.856;2022-12-18T04:14:44;17.30;;;9.43;;
31206;SDS011;17834;52.992;8.856;2022-12-18T04:17:10;16.58;;;9.40;;
31206;SDS011;17834;52.992;8.856;2022-12-18T04:19:36;21.67;;;8.65;;
31206;SDS011;17834;52.992;8.856;2022-12-18T04:22:02;22.75;;;9.95;;
31206;SDS011;17834;52.992;8.856;2022-12-18T04:24:28;20.48;;;9.50;;
31206;SDS011;17834;52.992;8.856;2022-12-18T04:26:54;21.02;;;11.25;;
31206;SDS011;17834;52.992;8.856;2022-12-18T04:29:20;17.58;;;9.48;;
31206;SDS011;17834;52.992;8.856;2022-12-18T04:31:46;16.38;;;9.35;;
31206;SDS011;17834;52.992;8.856;2022-12-18T04:34:12;18.13;;;9.93;;
31206;SDS011;17834;52.992;8.856;2022-12-18T04:36:38;22.15;;;9.38;;
31206;SDS011;17834;52.992;8.856;2022-12-18T04:39:04;24.90;;;10.10;;
31206;SDS011;17834;52.992;8.856;2022-12-18T04:41:30;17.73;;;8.90;;
31206;SDS011;17834;52.992;8.856;2022-12-18T04:43:56;14.70;;;8.77;;
31206;SDS011;17834;52.992;8.856;2022-12-18T04:46:22;21.80;;;8.27;;
31206;SDS011;17834;52.992;8.856;2022-12-18T04:48:48;14.10;;;8.57;;
31206;SDS011;17834;52.992;8.856;2022-12-18T04:51:14;21.80;;;8.88;;
31206;SDS011;17834;52.992;8.856;2022-12-18T04:53:40;19.98;;;9.85;;
31206;SDS011;17834;52.992;8.856;2022-12-18T04:56:07;18.58;;;8.52;;
31206;SDS011;17834;52.992;8.856;2022-12-18T04:58:34;16.77;;;8.35;;
31206;SDS011;17834;52.992;8.856;2022-12-18T05:01:00;19.25;;;8.68;;
31206;SDS011;17834;52.992;8.856;2022-12-18T05:03:26;18.35;;;8.82;;
31206;SDS011;17834;52.992;8.856;2022-12-18T05:05:52;17.85;;;8.98;;
31206;SDS011;17834;52.992;8.856;2022-12-18T05:08:18;15.27;;;7.88;;
31206;SDS011;17834;52.992;8.856;2022-12-18T05:10:44;14.23;;;8.30;;
31206;SDS011;17834;52.992;8.856;2022-12-18T05:13:10;14.32;;;6.97;;
31206;SDS011;17834;52.992;8.856;2022-12-18T05:15:36;22.15;;;8.73;;
31206;SDS011;17834;52.992;8.856;2022-12-18T05:18:03;17.75;;;8.30;;
31206;SDS011;17834;52.992;8.856;2022-12-18T05:20:29;16.50;;;7.43;;
31206;SDS011;17834;52.992;8.856;2022-12-18T05:22:56;18.98;;;7.18;;
31206;SDS011;17834;52.992;8.856;2022-12-18T05:25:22;12.02;;;7.93;;
31206;SDS011;17834;52.992;8.856;2022-12-18T05:27:48;14.40;;;8.27;;
31206;SDS011;17834;52.992;8.856;2022-12-18T05:30:15;11.85;;;7.22;;
31206;SDS011;17834;52.992;8.856;2022-12-18T05:32:41;14.18;;;8.07;;
31206;SDS011;17834;52.992;8.856;2022-12-18T05:35:08;16.48;;;8.05;;
31206;SDS011;17834;52.992;8.856;2022-12-18T05:37:35;21.25;;;8.77;;
31206;SDS011;17834;52.992;8.856;2022-12-18T05:40:02;11.13;;;7.22;;
31206;SDS011;17834;52.992;8.856;2022-12-18T05:42:29;14.27;;;6.65;;
31206;SDS011;17834;52.992;8.856;2022-12-18T05:44:55;18.23;;;7.80;;
31206;SDS011;17834;52.992;8.856;2022-12-18T05:47:21;17.92;;;7.95;;
31206;SDS011;17834;52.992;8.856;2022-12-18T05:49:47;14.30;;;6.75;;
31206;SDS011;17834;52.992;8.856;2022-12-18T05:52:13;15.02;;;7.50;;
31206;SDS011;17834;52.992;8.856;2022-12-18T05:54:39;14.80;;;7.45;;
31206;SDS011;17834;52.992;8.856;2022-12-18T05:57:05;10.20;;;6.25;;
31206;SDS011;17834;52.992;8.856;2022-12-18T05:59:31;13.48;;;7.07;;
31206;SDS011;17834;52.992;8.856;2022-12-18T06:01:57;15.48;;;7.10;;
31206;SDS011;17834;52.992;8.856;2022-12-18T06:04:23;19.08;;;8.02;;
31206;SDS011;17834;52.992;8.856;2022-12-18T06:06:49;18.35;;;7.78;;
31206;SDS011;17834;52.992;8.856;2022-12-18T06:09:15;17.17;;;8.25;;
31206;SDS011;17834;52.992;8.856;2022-12-18T06:11:41;19.77;;;8.07;;
31206;SDS011;17834;52.992;8.856;2022-12-18T06:14:08;17.05;;;6.15;;
31206;SDS011;17834;52.992;8.856;2022-12-18T06:16:35;11.15;;;6.97;;
31206;SDS011;17834;52.992;8.856;2022-12-18T06:19:03;14.82;;;7.43;;
31206;SDS011;17834;52.992;8.856;2022-12-18T06:21:29;12.52;;;6.55;;
31206;SDS011;17834;52.992;8.856;2022-12-18T06:23:56;15.15;;;7.70;;
31206;SDS011;17834;52.992;8.856;2022-12-18T06:26:22;10.45;;;6.45;;
31206;SDS011;17834;52.992;8.856;2022-12-18T06:28:48;11.43;;;5.35;;
31206;SDS011;17834;52.992;8.856;2022-12-18T06:31:14;10.73;;;6.95;;
31206;SDS011;17834;52.992;8.856;2022-12-18T06:33:41;15.35;;;7.65;;
31206;SDS011;17834;52.992;8.856;2022-12-18T06:36:08;12.05;;;6.65;;
31206;SDS011;17834;52.992;8.856;2022-12-18T06:38:34;16.17;;;8.18;;
31206;SDS011;17834;52.992;8.856;2022-12-18T06:41:00;13.45;;;7.05;;
31206;SDS011;17834;52.992;8.856;2022-12-18T06:43:26;12.48;;;6.47;;
31206;SDS011;17834;52.992;8.856;2022-12-18T06:45:57;17.88;;;7.97;;
31206;SDS011;17834;52.992;8.856;2022-12-18T06:48:23;15.00;;;6.70;;
31206;SDS011;17834;52.992;8.856;2022-12-18T06:50:49;18.27;;;7.35;;
31206;SDS011;17834;52.992;8.856;2022-12-18T06:53:15;18.88;;;7.15;;
31206;SDS011;17834;52.992;8.856;2022-12-18T06:55:41;15.82;;;6.32;;
31206;SDS011;17834;52.992;8.856;2022-12-18T06:58:07;17.70;;;7.60;;
31206;SDS011;17834;52.992;8.856;2022-12-18T07:00:33;16.40;;;6.85;;
31206;SDS011;17834;52.992;8.856;2022-12-18T07:02:59;13.70;;;8.63;;
31206;SDS011;17834;52.992;8.856;2022-12-18T07:05:25;15.20;;;7.30;;
31206;SDS011;17834;52.992;8.856;2022-12-18T07:07:51;14.52;;;8.57;;
31206;SDS011;17834;52.992;8.856;2022-12-18T07:10:18;21.10;;;8.18;;
31206;SDS011;17834;52.992;8.856;2022-12-18T07:12:44;14.25;;;7.85;;
31206;SDS011;17834;52.992;8.856;2022-12-18T07:15:10;12.93;;;6.15;;
31206;SDS011;17834;52.992;8.856;2022-12-18T07:17:36;18.17;;;7.93;;
31206;SDS011;17834;52.992;8.856;2022-12-18T07:20:02;13.43;;;6.63;;
31206;SDS011;17834;52.992;8.856;2022-12-18T07:22:28;14.35;;;8.20;;
31206;SDS011;17834;52.992;8.856;2022-12-18T07:24:54;16.67;;;8.45;;
31206;SDS011;17834;52.992;8.856;2022-12-18T07:27:20;21.40;;;7.68;;
31206;SDS011;17834;52.992;8.856;2022-12-18T07:29:46;14.63;;;7.03;;
31206;SDS011;17834;52.992;8.856;2022-12-18T07:32:12;14.18;;;8.68;;
31206;SDS011;17834;52.992;8.856;2022-12-18T07:34:38;18.08;;;7.00;;
31206;SDS011;17834;52.992;8.856;2022-12-18T07:37:04;18.17;;;7.70;;
31206;SDS011;17834;52.992;8.856;2022-12-18T07:39:30;16.98;;;8.15;;
31206;SDS011;17834;52.992;8.856;2022-12-18T07:41:56;16.35;;;7.50;;
31206;SDS011;17834;52.992;8.856;2022-12-18T07:44:41;16.10;;;8.45;;
31206;SDS011;17834;52.992;8.856;2022-12-18T07:47:07;16.95;;;7.70;;
31206;SDS011;17834;52.992;8.856;2022-12-18T07:49:33;12.73;;;7.57;;
31206;SDS011;17834;52.992;8.856;2022-12-18T07:51:59;13.80;;;7.40;;
31206;SDS011;17834;52.992;8.856;2022-12-18T07:54:26;16.35;;;7.90;;
31206;SDS011;17834;52.992;8.856;2022-12-18T07:56:52;14.13;;;7.78;;
31206;SDS011;17834;52.992;8.856;2022-12-18T07:59:18;16.25;;;7.65;;
31206;SDS011;17834;52.992;8.856;2022-12-18T08:01:44;12.75;;;7.40;;
31206;SDS011;17834;52.992;8.856;2022-12-18T08:04:10;14.15;;;9.32;;
31206;SDS011;17834;52.992;8.856;2022-12-18T08:06:37;21.05;;;8.75;;
31206;SDS011;17834;52.992;8.856;2022-12-18T08:09:03;15.10;;;8.07;;
31206;SDS011;17834;52.992;8.856;2022-12-18T08:11:29;15.27;;;8.52;;
31206;SDS011;17834;52.992;8.856;2022-12-18T08:13:55;22.63;;;8.73;;
31206;SDS011;17834;52.992;8.856;2022-12-18T08:16:22;15.80;;;8.65;;
31206;SDS011;17834;52.992;8.856;2022-12-18T08:18:48;16.83;;;8.82;;
31206;SDS011;17834;52.992;8.856;2022-12-18T08:21:15;13.82;;;8.02;;
31206;SDS011;17834;52.992;8.856;2022-12-18T08:23:41;15.93;;;8.07;;
31206;SDS011;17834;52.992;8.856;2022-12-18T08:26:08;17.50;;;8.18;;
31206;SDS011;17834;52.992;8.856;2022-12-18T08:28:34;16.27;;;9.10;;
31206;SDS011;17834;52.992;8.856;2022-12-18T08:31:00;17.30;;;8.52;;
31206;SDS011;17834;52.992;8.856;2022-12-18T08:33:26;17.85;;;8.48;;
31206;SDS011;17834;52.992;8.856;2022-12-18T08:35:52;20.35;;;9.32;;
31206;SDS011;17834;52.992;8.856;2022-12-18T08:38:18;22.88;;;9.00;;
31206;SDS011;17834;52.992;8.856;2022-12-18T08:40:45;17.20;;;8.95;;
31206;SDS011;17834;52.992;8.856;2022-12-18T08:43:11;15.27;;;8.68;;
31206;SDS011;17834;52.992;8.856;2022-12-18T08:45:55;15.00;;;8.18;;
31206;SDS011;17834;52.992;8.856;2022-12-18T08:48:21;16.02;;;7.85;;
31206;SDS011;17834;52.992;8.856;2022-12-18T08:50:57;20.67;;;8.00;;
31206;SDS011;17834;52.992;8.856;2022-12-18T08:53:23;23.10;;;8.45;;
31206;SDS011;17834;52.992;8.856;2022-12-18T08:55:49;14.50;;;7.28;;
31206;SDS011;17834;52.992;8.856;2022-12-18T08:58:15;24.10;;;9.85;;
31206;SDS011;17834;52.992;8.856;2022-12-18T09:00:41;25.80;;;9.43;;
31206;SDS011;17834;52.992;8.856;2022-12-18T09:03:11;21.63;;;9.13;;
31206;SDS011;17834;52.992;8.856;2022-12-18T09:05:37;17.23;;;8.90;;
31206;SDS011;17834;52.992;8.856;2022-12-18T09:08:03;21.45;;;9.32;;
31206;SDS011;17834;52.992;8.856;2022-12-18T09:10:29;17.33;;;8.95;;
31206;SDS011;17834;52.992;8.856;2022-12-18T09:12:55;14.52;;;8.07;;
31206;SDS011;17834;52.992;8.856;2022-12-18T09:15:22;22.33;;;10.32;;
31206;SDS011;17834;52.992;8.856;2022-12-18T09:17:48;21.10;;;9.48;;
31206;SDS011;17834;52.992;8.856;2022-12-18T09:20:15;17.70;;;8.88;;
31206;SDS011;17834;52.992;8.856;2022-12-18T09:22:41;17.65;;;9.35;;
31206;SDS011;17834;52.992;8.856;2022-12-18T09:25:07;19.33;;;9.20;;
31206;SDS011;17834;52.992;8.856;2022-12-18T09:27:33;22.48;;;11.50;;
31206;SDS011;17834;52.992;8.856;2022-12-18T09:29:59;21.48;;;9.43;;
31206;SDS011;17834;52.992;8.856;2022-12-18T09:32:25;21.63;;;10.00;;
31206;SDS011;17834;52.992;8.856;2022-12-18T09:34:52;22.90;;;10.02;;
31206;SDS011;17834;52.992;8.856;2022-12-18T09:37:18;23.42;;;9.88;;
31206;SDS011;17834;52.992;8.856;2022-12-18T09:39:44;21.05;;;8.93;;
31206;SDS011;17834;52.992;8.856;2022-12-18T09:42:12;22.77;;;9.27;;
31206;SDS011;17834;52.992;8.856;2022-12-18T09:44:43;18.08;;;9.63;;
31206;SDS011;17834;52.992;8.856;2022-12-18T09:49:44;26.77;;;11.73;;
31206;SDS011;17834;52.992;8.856;2022-12-18T09:52:19;19.05;;;8.73;;
31206;SDS011;17834;52.992;8.856;2022-12-18T09:57:24;26.98;;;10.48;;
31206;SDS011;17834;52.992;8.856;2022-12-18T09:59:59;19.50;;;9.07;;
31206;SDS011;17834;52.992;8.856;2022-12-18T10:02:30;27.73;;;10.75;;
31206;SDS011;17834;52.992;8.856;2022-12-18T10:07:37;21.55;;;11.40;;
31206;SDS011;17834;52.992;8.856;2022-12-18T10:10:07;33.20;;;11.00;;
31206;SDS011;17834;52.992;8.856;2022-12-18T10:12:47;31.42;;;12.18;;
31206;SDS011;17834;52.992;8.856;2022-12-18T10:15:36;21.77;;;10.52;;
31206;SDS011;17834;52.992;8.856;2022-12-18T10:20:32;23.02;;;11.38;;
31206;SDS011;17834;52.992;8.856;2022-12-18T10:28:17;22.40;;;11.48;;
31206;SDS011;17834;52.992;8.856;2022-12-18T10:30:44;24.73;;;10.98;;
31206;SDS011;17834;52.992;8.856;2022-12-18T10:33:14;18.85;;;9.15;;
31206;SDS011;17834;52.992;8.856;2022-12-18T10:35:41;21.80;;;11.32;;
31206;SDS011;17834;52.992;8.856;2022-12-18T10:40:51;24.77;;;10.38;;
31206;SDS011;17834;52.992;8.856;2022-12-18T10:43:36;20.30;;;10.23;;
31206;SDS011;17834;52.992;8.856;2022-12-18T10:48:49;19.80;;;9.70;;
31206;SDS011;17834;52.992;8.856;2022-12-18T10:51:23;17.50;;;10.00;;
31206;SDS011;17834;52.992;8.856;2022-12-18T10:54:32;16.88;;;8.63;;
31206;SDS011;17834;52.992;8.856;2022-12-18T10:56:39;24.83;;;9.73;;
31206;SDS011;17834;52.992;8.856;2022-12-18T10:59:06;22.55;;;10.80;;
31206;SDS011;17834;52.992;8.856;2022-12-18T11:04:31;21.05;;;10.10;;
31206;SDS011;17834;52.992;8.856;2022-12-18T11:07:02;19.63;;;10.05;;
31206;SDS011;17834;52.992;8.856;2022-12-18T11:09:29;25.60;;;10.77;;
31206;SDS011;17834;52.992;8.856;2022-12-18T11:11:57;30.65;;;12.13;;
31206;SDS011;17834;52.992;8.856;2022-12-18T11:14:34;23.88;;;10.50;;
31206;SDS011;17834;52.992;8.856;2022-12-18T11:17:18;26.60;;;10.05;;
31206;SDS011;17834;52.992;8.856;2022-12-18T11:19:44;21.35;;;9.15;;
31206;SDS011;17834;52.992;8.856;2022-12-18T11:22:27;17.50;;;9.05;;
31206;SDS011;17834;52.992;8.856;2022-12-18T11:24:59;21.10;;;10.35;;
31206;SDS011;17834;52.992;8.856;2022-12-18T11:27:26;23.02;;;10.35;;
31206;SDS011;17834;52.992;8.856;2022-12-18T11:29:52;21.83;;;9.45;;
31206;SDS011;17834;52.992;8.856;2022-12-18T11:32:35;20.17;;;9.02;;
31206;SDS011;17834;52.992;8.856;2022-12-18T11:35:03;19.30;;;9.95;;
31206;SDS011;17834;52.992;8.856;2022-12-18T11:37:31;23.75;;;10.60;;
31206;SDS011;17834;52.992;8.856;2022-12-18T11:39:59;21.55;;;9.98;;
31206;SDS011;17834;52.992;8.856;2022-12-18T11:42:33;21.70;;;9.48;;
31206;SDS011;17834;52.992;8.856;2022-12-18T11:45:08;20.27;;;10.05;;
31206;SDS011;17834;52.992;8.856;2022-12-18T11:47:48;21.98;;;10.38;;
31206;SDS011;17834;52.992;8.856;2022-12-18T11:50:20;19.58;;;9.88;;
31206;SDS011;17834;52.992;8.856;2022-12-18T11:52:48;21.00;;;9.63;;
31206;SDS011;17834;52.992;8.856;2022-12-18T11:55:15;19.50;;;9.25;;
31206;SDS011;17834;52.992;8.856;2022-12-18T11:57:51;24.08;;;9.52;;
31206;SDS011;17834;52.992;8.856;2022-12-18T12:00:21;22.52;;;8.90;;
31206;SDS011;17834;52.992;8.856;2022-12-18T12:05:44;20.02;;;8.73;;
31206;SDS011;17834;52.992;8.856;2022-12-18T12:08:20;20.13;;;9.85;;
31206;SDS011;17834;52.992;8.856;2022-12-18T12:11:03;16.90;;;8.32;;
31206;SDS011;17834;52.992;8.856;2022-12-18T12:26:10;16.15;;;9.48;;
31206;SDS011;17834;52.992;8.856;2022-12-18T12:28:48;16.88;;;9.00;;
31206;SDS011;17834;52.992;8.856;2022-12-18T12:36:20;19.30;;;8.73;;
31206;SDS011;17834;52.992;8.856;2022-12-18T12:38:51;22.50;;;9.30;;
31206;SDS011;17834;52.992;8.856;2022-12-18T12:41:18;18.40;;;8.95;;
31206;SDS011;17834;52.992;8.856;2022-12-18T12:44:05;17.33;;;8.45;;
31206;SDS011;17834;52.992;8.856;2022-12-18T12:46:33;15.43;;;8.73;;
31206;SDS011;17834;52.992;8.856;2022-12-18T12:49:03;17.73;;;8.25;;
31206;SDS011;17834;52.992;8.856;2022-12-18T12:51:34;15.57;;;9.02;;
31206;SDS011;17834;52.992;8.856;2022-12-18T12:54:01;16.25;;;8.77;;
31206;SDS011;17834;52.992;8.856;2022-12-18T12:57:12;17.13;;;8.68;;
31206;SDS011;17834;52.992;8.856;2022-12-18T12:59:38;18.77;;;8.70;;
31206;SDS011;17834;52.992;8.856;2022-12-18T13:02:42;18.25;;;8.70;;
31206;SDS011;17834;52.992;8.856;2022-12-18T13:05:02;18.30;;;8.65;;
31206;SDS011;17834;52.992;8.856;2022-12-18T13:07:32;20.17;;;9.35;;
31206;SDS011;17834;52.992;8.856;2022-12-18T13:12:57;17.02;;;7.93;;
31206;SDS011;17834;52.992;8.856;2022-12-18T13:15:25;23.10;;;8.63;;
31206;SDS011;17834;52.992;8.856;2022-12-18T13:18:05;19.48;;;9.18;;
31206;SDS011;17834;52.992;8.856;2022-12-18T13:20:35;17.00;;;8.20;;
31206;SDS011;17834;52.992;8.856;2022-12-18T13:25:47;17.63;;;9.63;;
31206;SDS011;17834;52.992;8.856;2022-12-18T13:28:16;18.33;;;9.27;;
31206;SDS011;17834;52.992;8.856;2022-12-18T13:35:51;23.90;;;9.48;;
31206;SDS011;17834;52.992;8.856;2022-12-18T13:38:39;30.73;;;11.77;;
31206;SDS011;17834;52.992;8.856;2022-12-18T13:43:49;20.05;;;10.00;;
31206;SDS011;17834;52.992;8.856;2022-12-18T13:46:23;22.50;;;9.82;;
31206;SDS011;17834;52.992;8.856;2022-12-18T13:49:03;17.45;;;8.63;;
31206;SDS011;17834;52.992;8.856;2022-12-18T13:51:31;22.10;;;10.23;;
31206;SDS011;17834;52.992;8.856;2022-12-18T13:53:59;19.27;;;9.52;;
31206;SDS011;17834;52.992;8.856;2022-12-18T13:56:26;18.70;;;9.32;;
31206;SDS011;17834;52.992;8.856;2022-12-18T13:59:08;21.38;;;10.55;;
31206;SDS011;17834;52.992;8.856;2022-12-18T14:01:36;20.10;;;9.13;;
31206;SDS011;17834;52.992;8.856;2022-12-18T14:06:46;15.77;;;8.05;;
31206;SDS011;17834;52.992;8.856;2022-12-18T14:09:13;18.63;;;8.93;;
31206;SDS011;17834;52.992;8.856;2022-12-18T14:11:40;16.48;;;8.82;;
31206;SDS011;17834;52.992;8.856;2022-12-18T14:14:06;14.27;;;7.90;;
31206;SDS011;17834;52.992;8.856;2022-12-18T14:16:32;19.80;;;9.05;;
31206;SDS011;17834;52.992;8.856;2022-12-18T14:18:59;20.90;;;9.18;;
31206;SDS011;17834;52.992;8.856;2022-12-18T14:21:26;17.52;;;8.70;;
31206;SDS011;17834;52.992;8.856;2022-12-18T14:24:13;18.85;;;9.48;;
31206;SDS011;17834;52.992;8.856;2022-12-18T14:26:40;17.23;;;9.65;;
31206;SDS011;17834;52.992;8.856;2022-12-18T14:29:19;17.70;;;8.40;;
31206;SDS011;17834;52.992;8.856;2022-12-18T14:31:45;13.88;;;7.95;;
31206;SDS011;17834;52.992;8.856;2022-12-18T14:34:15;17.13;;;8.18;;
31206;SDS011;17834;52.992;8.856;2022-12-18T14:36:41;21.60;;;7.30;;
31206;SDS011;17834;52.992;8.856;2022-12-18T14:39:17;17.02;;;7.70;;
31206;SDS011;17834;52.992;8.856;2022-12-18T14:41:43;16.45;;;7.43;;
31206;SDS011;17834;52.992;8.856;2022-12-18T14:44:10;21.02;;;8.90;;
31206;SDS011;17834;52.992;8.856;2022-12-18T14:46:38;18.30;;;8.20;;
31206;SDS011;17834;52.992;8.856;2022-12-18T14:49:27;23.20;;;9.63;;
31206;SDS011;17834;52.992;8.856;2022-12-18T14:51:56;14.57;;;7.22;;
31206;SDS011;17834;52.992;8.856;2022-12-18T14:54:23;16.55;;;7.07;;
31206;SDS011;17834;52.992;8.856;2022-12-18T14:56:51;21.55;;;7.47;;
31206;SDS011;17834;52.992;8.856;2022-12-18T14:59:21;18.65;;;8.30;;
31206;SDS011;17834;52.992;8.856;2022-12-18T15:09:30;18.42;;;8.57;;
31206;SDS011;17834;52.992;8.856;2022-12-18T15:11:57;14.95;;;8.13;;
31206;SDS011;17834;52.992;8.856;2022-12-18T15:19:31;20.05;;;9.55;;
31206;SDS011;17834;52.992;8.856;2022-12-18T15:21:58;22.20;;;8.75;;
31206;SDS011;17834;52.992;8.856;2022-12-18T15:24:26;17.15;;;8.27;;
31206;SDS011;17834;52.992;8.856;2022-12-18T15:26:52;17.20;;;8.15;;
31206;SDS011;17834;52.992;8.856;2022-12-18T15:29:19;16.35;;;8.20;;
31206;SDS011;17834;52.992;8.856;2022-12-18T15:31:58;22.13;;;8.73;;
31206;SDS011;17834;52.992;8.856;2022-12-18T15:34:24;18.88;;;8.63;;
31206;SDS011;17834;52.992;8.856;2022-12-18T15:36:51;21.17;;;9.20;;
31206;SDS011;17834;52.992;8.856;2022-12-18T15:39:17;18.58;;;8.77;;
31206;SDS011;17834;52.992;8.856;2022-12-18T15:41:43;20.92;;;8.95;;
31206;SDS011;17834;52.992;8.856;2022-12-18T15:46:55;18.23;;;8.30;;
31206;SDS011;17834;52.992;8.856;2022-12-18T15:49:21;22.05;;;8.45;;
31206;SDS011;17834;52.992;8.856;2022-12-18T15:51:49;20.83;;;8.52;;
31206;SDS011;17834;52.992;8.856;2022-12-18T15:54:17;16.67;;;7.75;;
31206;SDS011;17834;52.992;8.856;2022-12-18T15:57:03;17.83;;;8.07;;
31206;SDS011;17834;52.992;8.856;2022-12-18T15:59:47;21.05;;;8.95;;
31206;SDS011;17834;52.992;8.856;2022-12-18T16:02:14;20.80;;;7.72;;
31206;SDS011;17834;52.992;8.856;2022-12-18T16:04:41;16.67;;;8.40;;
31206;SDS011;17834;52.992;8.856;2022-12-18T16:07:08;17.75;;;8.90;;
31206;SDS011;17834;52.992;8.856;2022-12-18T16:09:34;20.73;;;8.98;;
31206;SDS011;17834;52.992;8.856;2022-12-18T16:12:00;21.85;;;8.82;;
31206;SDS011;17834;52.992;8.856;2022-12-18T16:14:28;22.35;;;8.38;;
31206;SDS011;17834;52.992;8.856;2022-12-18T16:16:57;15.73;;;8.45;;